Delta Virtual Airport Information Service

Minneapolis Saint Paul International Airport

ICAO: KMSP Country: United States
Latitude: 44.882 Longitude: -93.2217
Latest Arrival : DAL1496 (1) (KLGA-KMSP) Latest Departure : DAL1117 (1A) (KMSP-KBZN)


WX CaptureLIVE
Data provided by noaa.gov | Fetched at 01:01:45

METAR : KMSP 250553Z 18005KT 10SM SCT050 BKN210 20/18 A2981 RMK AO2 SLP093 T02000183 10239 20200 402560144 58004

TAF : KMSP 250520Z 2506/2612 00000KT P6SM SCT040 OVC120 FM251100 00000KT 6SM -SHRA BR BKN040 FM251800 VRB04KT P6SM BKN050 FM260900 12005KT P6SM BKN035


Runway Data for KMSP
Data provided by openaviationdata.com

Runway ID Mag Var Hdg Length Elevation Surface ILS Freq ILS Id ILS Slope
4 2 42° 10999 ft 841 ft Concrete 109.3 IAPL 3
12L 2 119° 8190 ft 841 ft Asphalt 110.7 IPJL 3
12R 2 119° 9988 ft 841 ft Asphalt 110.3 IHKZ 3
22 2 222° 10999 ft 841 ft Concrete 110.5 ISIJ 0
30L 2 299° 9988 ft 841 ft Asphalt 110.3 IMSP 3
30R 2 299° 8190 ft 841 ft Asphalt 110.7 IINN 3

Minneapolis Saint Paul International Airport, United States
Use only for reference purposes



Not for navigational purposes.